Time;durP1;ratioP1;P1;durP2;ratioP2;P2;SDS_P1;SDS_P2;PMS_P1;PMS_P2;Temp;Humidity;BMP_temperature;BMP_pressure;BME280_temperature;BME280_humidity;BME280_pressure;Samples;Min_cycle;Max_cycle;Signal;HPM_P1;HPM_P2
2022/07/07 00:01:56;;;;;;;19.23;12.13;;;;;;;;;;5052116;28;20048;-82
2022/07/07 00:04:23;;;;;;;15.27;11.45;;;;;;;;;;5052357;28;20116;-83
2022/07/07 00:06:49;;;;;;;16.25;11.65;;;;;;;;;;5050516;28;20222;-84
2022/07/07 00:09:15;;;;;;;14.60;11.60;;;;;;;;;;5053569;28;20102;-84
2022/07/07 00:11:41;;;;;;;15.52;12.07;;;;;;;;;;5030535;28;20053;-84
2022/07/07 00:14:08;;;;;;;17.75;11.45;;;;;;;;;;5035751;28;20056;-82
2022/07/07 00:16:35;;;;;;;14.65;11.40;;;;;;;;;;5053844;28;20486;-81
2022/07/07 00:19:03;;;;;;;15.98;12.52;;;;;;;;;;5056073;28;20052;-83
2022/07/07 00:21:31;;;;;;;16.35;12.15;;;;;;;;;;5061890;28;20040;-84
2022/07/07 00:23:57;;;;;;;15.38;12.35;;;;;;;;;;5066164;28;20048;-86
2022/07/07 00:26:23;;;;;;;16.55;13.27;;;;;;;;;;5059502;28;20502;-84
2022/07/07 00:28:49;;;;;;;17.58;12.52;;;;;;;;;;5041745;28;20536;-85
2022/07/07 00:31:15;;;;;;;15.73;12.02;;;;;;;;;;5062159;28;20499;-84
2022/07/07 00:33:41;;;;;;;17.05;12.18;;;;;;;;;;5044864;28;20055;-83
2022/07/07 00:36:08;;;;;;;17.23;12.23;;;;;;;;;;5040584;28;20044;-83
2022/07/07 00:38:34;;;;;;;17.70;12.20;;;;;;;;;;5058548;28;20120;-85
2022/07/07 00:41:01;;;;;;;14.75;12.32;;;;;;;;;;5066157;28;20128;-84
2022/07/07 00:43:27;;;;;;;15.65;12.07;;;;;;;;;;5059476;28;20049;-84
2022/07/07 00:45:55;;;;;;;16.95;12.70;;;;;;;;;;5063537;28;20490;-83
2022/07/07 00:48:21;;;;;;;15.45;12.82;;;;;;;;;;5057715;28;20123;-84
2022/07/07 00:50:48;;;;;;;18.88;12.77;;;;;;;;;;5069064;28;20060;-85
2022/07/07 00:53:15;;;;;;;16.90;12.63;;;;;;;;;;5077808;28;20119;-84
2022/07/07 00:55:42;;;;;;;17.10;12.05;;;;;;;;;;5080680;28;20070;-84
2022/07/07 00:58:08;;;;;;;18.85;13.10;;;;;;;;;;5060171;28;20070;-84
2022/07/07 01:00:34;;;;;;;14.77;12.25;;;;;;;;;;5059767;28;20442;-83
2022/07/07 01:03:00;;;;;;;15.52;12.15;;;;;;;;;;5056472;28;20041;-84
2022/07/07 01:05:27;;;;;;;13.45;10.45;;;;;;;;;;5058112;28;20403;-83
2022/07/07 01:07:54;;;;;;;13.88;10.30;;;;;;;;;;5050943;28;20449;-85
2022/07/07 01:10:20;;;;;;;12.82;9.32;;;;;;;;;;5052742;28;20041;-84
2022/07/07 01:12:46;;;;;;;10.90;8.88;;;;;;;;;;5054118;28;20446;-85
2022/07/07 01:15:13;;;;;;;11.68;7.97;;;;;;;;;;5050466;28;20056;-84
2022/07/07 01:17:40;;;;;;;12.77;8.20;;;;;;;;;;5053779;28;20484;-85
2022/07/07 01:20:07;;;;;;;15.93;9.13;;;;;;;;;;5042868;28;20044;-82
2022/07/07 01:22:36;;;;;;;13.80;9.15;;;;;;;;;;5073088;28;20632;-83
2022/07/07 01:25:04;;;;;;;13.05;8.15;;;;;;;;;;5054343;28;20399;-83
2022/07/07 01:27:30;;;;;;;13.07;7.97;;;;;;;;;;5054075;28;20403;-82
2022/07/07 01:29:57;;;;;;;12.23;9.30;;;;;;;;;;5058884;28;20032;-83
2022/07/07 01:32:23;;;;;;;16.42;9.55;;;;;;;;;;5053260;28;20041;-83
2022/07/07 01:34:52;;;;;;;13.15;9.40;;;;;;;;;;5054687;28;20087;-84
2022/07/07 01:37:20;;;;;;;14.40;8.80;;;;;;;;;;5055153;28;20041;-85
2022/07/07 01:39:47;;;;;;;15.00;9.38;;;;;;;;;;5054780;28;20049;-85
2022/07/07 01:42:13;;;;;;;14.68;8.65;;;;;;;;;;5054323;28;20060;-84
2022/07/07 01:44:40;;;;;;;12.77;7.85;;;;;;;;;;5057236;28;20048;-84
2022/07/07 01:47:06;;;;;;;12.10;7.95;;;;;;;;;;5067311;28;20044;-84
2022/07/07 01:49:33;;;;;;;10.02;7.65;;;;;;;;;;5054501;28;20087;-85
2022/07/07 01:52:02;;;;;;;13.30;7.40;;;;;;;;;;5057163;28;20049;-85
2022/07/07 01:54:28;;;;;;;9.80;6.35;;;;;;;;;;5038281;28;20545;-86
2022/07/07 01:57:00;;;;;;;12.07;7.57;;;;;;;;;;5044314;28;20045;-85
2022/07/07 01:59:26;;;;;;;11.13;6.93;;;;;;;;;;5050845;28;20084;-85
2022/07/07 02:01:53;;;;;;;10.73;7.10;;;;;;;;;;5046684;28;20072;-85
2022/07/07 02:04:19;;;;;;;10.55;6.85;;;;;;;;;;5062868;28;20044;-86
2022/07/07 02:06:45;;;;;;;10.68;6.72;;;;;;;;;;5055058;28;20057;-85
2022/07/07 02:09:11;;;;;;;13.52;6.40;;;;;;;;;;5047775;28;20116;-85
2022/07/07 02:11:37;;;;;;;8.43;5.18;;;;;;;;;;5064043;28;20059;-85
2022/07/07 02:14:06;;;;;;;8.60;5.00;;;;;;;;;;5040287;28;20045;-86
2022/07/07 02:16:36;;;;;;;9.55;5.10;;;;;;;;;;5062132;28;20052;-85
2022/07/07 02:19:03;;;;;;;10.73;5.40;;;;;;;;;;5056663;28;20044;-86
2022/07/07 02:21:30;;;;;;;11.63;5.35;;;;;;;;;;5055038;28;20051;-85
2022/07/07 02:23:56;;;;;;;8.20;4.80;;;;;;;;;;5057844;28;20041;-85
2022/07/07 02:26:23;;;;;;;11.52;5.18;;;;;;;;;;5040466;28;20479;-87
2022/07/07 02:28:49;;;;;;;9.13;4.25;;;;;;;;;;5063298;28;20120;-86
2022/07/07 02:31:15;;;;;;;11.88;4.60;;;;;;;;;;5040565;28;20045;-87
2022/07/07 02:33:45;;;;;;;6.68;3.75;;;;;;;;;;5057399;28;20037;-87
2022/07/07 02:36:11;;;;;;;7.38;3.72;;;;;;;;;;5037795;28;20076;-84
2022/07/07 02:38:37;;;;;;;7.38;3.38;;;;;;;;;;5070243;28;20441;-85
2022/07/07 02:41:04;;;;;;;7.13;3.05;;;;;;;;;;5062147;28;20399;-86
2022/07/07 02:43:30;;;;;;;6.47;3.13;;;;;;;;;;5019886;28;20099;-84
2022/07/07 02:45:56;;;;;;;9.15;3.28;;;;;;;;;;5037768;28;20457;-86
2022/07/07 02:48:23;;;;;;;5.95;3.03;;;;;;;;;;5031690;28;20088;-84
2022/07/07 02:50:50;;;;;;;7.93;2.97;;;;;;;;;;5055923;28;20071;-85
2022/07/07 02:53:16;;;;;;;5.75;2.35;;;;;;;;;;5041582;28;20051;-87
2022/07/07 02:55:42;;;;;;;6.93;2.50;;;;;;;;;;5040458;28;20049;-85
2022/07/07 02:58:09;;;;;;;5.57;2.78;;;;;;;;;;5064873;28;20071;-85
2022/07/07 03:00:36;;;;;;;7.57;2.90;;;;;;;;;;5058613;28;20124;-85
2022/07/07 03:03:06;;;;;;;6.22;2.70;;;;;;;;;;5057751;28;20067;-85
2022/07/07 03:05:32;;;;;;;6.40;3.03;;;;;;;;;;5037590;28;20037;-86
2022/07/07 03:07:59;;;;;;;8.90;2.95;;;;;;;;;;5047896;28;20064;-86
2022/07/07 03:10:25;;;;;;;7.30;2.67;;;;;;;;;;5083575;28;20052;-86
2022/07/07 03:12:52;;;;;;;8.73;3.33;;;;;;;;;;5065296;28;20052;-87
2022/07/07 03:15:18;;;;;;;10.88;2.97;;;;;;;;;;5063488;28;20040;-87
2022/07/07 03:17:55;;;;;;;;;;;;;;;;;;;;;
2022/07/07 03:32:06;;;;;;;;;;;;;;;;;;5051893;28;20620;-86
2022/07/07 03:34:39;;;;;;;9.73;2.95;;;;;;;;;;5059781;28;19925;-84
2022/07/07 03:37:05;;;;;;;9.35;2.63;;;;;;;;;;5065240;28;20052;-86
2022/07/07 03:39:33;;;;;;;8.43;3.10;;;;;;;;;;5059311;28;20049;-87
2022/07/07 03:41:59;;;;;;;9.25;2.88;;;;;;;;;;5041071;28;20081;-86
2022/07/07 03:44:28;;;;;;;9.55;2.70;;;;;;;;;;5062355;28;20101;-86
2022/07/07 03:47:15;;;;;;;12.18;3.20;;;;;;;;;;5043557;28;20538;-87
2022/07/07 03:49:50;;;;;;;9.13;2.63;;;;;;;;;;5057962;28;20051;-86
2022/07/07 03:52:28;;;;;;;;;;;;;;;;;;;;;
2022/07/07 03:55:17;;;;;;;8.80;3.00;;;;;;;;;;5052620;28;20110;-88
2022/07/07 03:58:12;;;;;;;9.40;2.65;;;;;;;;;;5024989;28;20053;-88
2022/07/07 04:01:17;;;;;;;;;;;;;;;;;;;;;
2022/07/07 04:04:07;;;;;;;7.57;2.63;;;;;;;;;;5027134;28;20033;-87
2022/07/07 04:12:53;;;;;;;11.13;3.05;;;;;;;;;;5055087;28;20053;-86
2022/07/07 04:15:41;;;;;;;9.63;3.03;;;;;;;;;;5075828;28;20048;-85
2022/07/07 04:18:19;;;;;;;;;;;;;;;;;;;;;
2022/07/07 04:21:05;;;;;;;;;;;;;;;;;;;;;
2022/07/07 04:24:04;;;;;;;;;;;;;;;;;;;;;
2022/07/07 04:26:31;;;;;;;8.75;2.25;;;;;;;;;;5078624;28;20048;-84
2022/07/07 04:29:01;;;;;;;5.90;1.73;;;;;;;;;;5078226;28;20071;-84
2022/07/07 04:31:27;;;;;;;5.47;1.50;;;;;;;;;;5079291;28;20029;-84
2022/07/07 04:33:53;;;;;;;6.90;1.33;;;;;;;;;;5078172;28;20070;-83
2022/07/07 04:36:19;;;;;;;5.45;1.20;;;;;;;;;;5075218;28;20052;-83
2022/07/07 04:38:45;;;;;;;6.13;1.20;;;;;;;;;;5061218;28;20049;-84
2022/07/07 04:41:11;;;;;;;6.43;1.40;;;;;;;;;;5075847;28;20040;-84
2022/07/07 04:43:37;;;;;;;7.72;1.38;;;;;;;;;;5075503;28;20048;-85
2022/07/07 04:46:03;;;;;;;7.78;1.73;;;;;;;;;;5075810;28;20063;-85
2022/07/07 04:48:29;;;;;;;9.75;1.58;;;;;;;;;;5070477;28;20565;-85
2022/07/07 04:50:55;;;;;;;12.85;1.65;;;;;;;;;;5055173;28;20045;-84
2022/07/07 04:53:21;;;;;;;9.55;2.15;;;;;;;;;;5059652;28;20045;-83
2022/07/07 04:55:47;;;;;;;11.88;1.80;;;;;;;;;;5053152;28;20083;-84
2022/07/07 04:58:13;;;;;;;7.47;1.52;;;;;;;;;;5076284;28;20092;-84
2022/07/07 05:00:39;;;;;;;10.93;1.98;;;;;;;;;;5067109;28;20045;-82
2022/07/07 05:03:05;;;;;;;10.15;1.70;;;;;;;;;;5047613;28;20079;-83
2022/07/07 05:05:31;;;;;;;8.27;1.42;;;;;;;;;;5043891;28;20044;-84
2022/07/07 05:07:57;;;;;;;12.32;1.50;;;;;;;;;;5066651;28;20060;-85
2022/07/07 05:10:23;;;;;;;10.13;1.60;;;;;;;;;;5052422;28;20076;-85
2022/07/07 05:12:49;;;;;;;12.52;2.08;;;;;;;;;;5052310;28;20045;-84
2022/07/07 05:15:15;;;;;;;10.45;1.70;;;;;;;;;;5070609;28;20045;-85
2022/07/07 05:17:41;;;;;;;10.65;1.92;;;;;;;;;;5054457;28;20049;-86
2022/07/07 05:20:08;;;;;;;9.43;1.95;;;;;;;;;;5071993;28;20055;-85
2022/07/07 05:22:34;;;;;;;12.23;1.80;;;;;;;;;;5088452;28;20071;-85
2022/07/07 05:25:00;;;;;;;12.35;1.75;;;;;;;;;;5076343;28;20049;-85
2022/07/07 05:27:26;;;;;;;11.98;1.88;;;;;;;;;;5074562;28;20025;-85
2022/07/07 05:29:52;;;;;;;13.02;2.08;;;;;;;;;;5072837;28;20049;-85
2022/07/07 05:32:18;;;;;;;9.57;2.22;;;;;;;;;;5059180;28;20063;-85
2022/07/07 05:34:44;;;;;;;9.10;1.83;;;;;;;;;;5076179;28;20041;-85
2022/07/07 05:37:10;;;;;;;9.88;1.90;;;;;;;;;;5061603;28;20049;-85
2022/07/07 05:39:36;;;;;;;11.38;1.70;;;;;;;;;;5072525;28;20103;-84
2022/07/07 05:42:03;;;;;;;11.32;1.73;;;;;;;;;;5055184;28;20071;-84
2022/07/07 05:44:29;;;;;;;7.70;1.63;;;;;;;;;;5050801;28;20045;-85
2022/07/07 05:46:55;;;;;;;8.35;1.60;;;;;;;;;;5040281;28;20053;-85
2022/07/07 05:49:21;;;;;;;9.07;1.77;;;;;;;;;;5079999;28;20104;-86
2022/07/07 05:51:47;;;;;;;12.30;1.88;;;;;;;;;;5079504;28;20040;-83
2022/07/07 05:54:13;;;;;;;8.13;1.40;;;;;;;;;;5092593;28;20048;-84
2022/07/07 05:56:39;;;;;;;10.40;1.48;;;;;;;;;;5056775;28;20457;-84
2022/07/07 05:59:06;;;;;;;9.73;1.50;;;;;;;;;;5068071;28;20044;-85
2022/07/07 06:01:32;;;;;;;10.25;1.73;;;;;;;;;;5065957;28;20048;-85
2022/07/07 06:03:58;;;;;;;10.23;1.75;;;;;;;;;;5066165;28;20072;-86
2022/07/07 06:06:24;;;;;;;10.98;1.73;;;;;;;;;;5074347;28;20049;-86
2022/07/07 06:08:50;;;;;;;9.52;1.70;;;;;;;;;;5046291;28;20049;-85
2022/07/07 06:11:16;;;;;;;10.35;1.73;;;;;;;;;;5066931;28;20045;-86
2022/07/07 06:13:42;;;;;;;11.73;1.80;;;;;;;;;;5066506;28;20045;-85
2022/07/07 06:16:08;;;;;;;10.27;2.10;;;;;;;;;;5061358;28;20040;-85
2022/07/07 06:18:36;;;;;;;10.90;1.98;;;;;;;;;;5066496;28;20037;-84
2022/07/07 06:21:02;;;;;;;8.98;1.83;;;;;;;;;;5062679;28;20044;-85
2022/07/07 06:23:28;;;;;;;8.70;1.80;;;;;;;;;;5066891;28;20498;-84
2022/07/07 06:25:54;;;;;;;8.10;1.60;;;;;;;;;;5047941;28;20457;-87
2022/07/07 06:28:20;;;;;;;9.23;1.70;;;;;;;;;;5059937;28;20044;-85
2022/07/07 06:30:46;;;;;;;9.63;1.60;;;;;;;;;;5069558;28;20041;-85
2022/07/07 06:33:12;;;;;;;10.93;1.85;;;;;;;;;;5073165;28;20048;-85
2022/07/07 06:35:38;;;;;;;10.90;1.90;;;;;;;;;;5058995;28;20044;-84
2022/07/07 06:38:04;;;;;;;9.10;2.10;;;;;;;;;;5052231;28;20040;-83
2022/07/07 06:40:30;;;;;;;10.43;1.70;;;;;;;;;;5094037;28;20031;-84
2022/07/07 06:42:56;;;;;;;11.38;1.63;;;;;;;;;;5087141;28;20041;-84
2022/07/07 06:45:23;;;;;;;11.57;2.10;;;;;;;;;;5075573;28;20055;-83
2022/07/07 06:47:49;;;;;;;10.65;2.00;;;;;;;;;;5051732;28;20104;-83
2022/07/07 06:50:16;;;;;;;10.05;1.60;;;;;;;;;;5042680;28;20045;-83
2022/07/07 06:52:42;;;;;;;12.77;2.03;;;;;;;;;;5068240;28;20044;-83
2022/07/07 06:55:08;;;;;;;10.27;1.95;;;;;;;;;;5070057;28;20071;-84
2022/07/07 06:57:34;;;;;;;9.57;2.08;;;;;;;;;;5058895;28;20100;-85
2022/07/07 07:00:00;;;;;;;7.35;1.67;;;;;;;;;;5056982;28;20049;-85
2022/07/07 07:02:26;;;;;;;11.40;1.92;;;;;;;;;;5074871;28;20029;-84
2022/07/07 07:04:52;;;;;;;12.00;2.17;;;;;;;;;;5072048;28;20052;-85
2022/07/07 07:07:18;;;;;;;10.48;1.85;;;;;;;;;;5056889;28;20041;-84
2022/07/07 07:09:45;;;;;;;9.02;2.00;;;;;;;;;;5041538;28;20049;-85
2022/07/07 07:12:11;;;;;;;15.45;2.20;;;;;;;;;;5057892;28;20034;-85
2022/07/07 07:14:37;;;;;;;9.60;1.70;;;;;;;;;;5039702;28;20093;-85
2022/07/07 07:17:03;;;;;;;8.60;1.65;;;;;;;;;;5056250;28;20102;-84
2022/07/07 07:19:29;;;;;;;7.32;1.58;;;;;;;;;;5057610;28;20053;-83
2022/07/07 07:21:55;;;;;;;10.98;1.83;;;;;;;;;;5036393;28;20128;-83
2022/07/07 07:24:21;;;;;;;7.63;1.25;;;;;;;;;;5051237;28;20049;-84
2022/07/07 07:26:47;;;;;;;10.15;1.52;;;;;;;;;;5053639;28;20037;-83
2022/07/07 07:29:14;;;;;;;9.60;1.65;;;;;;;;;;5049143;28;20045;-84
2022/07/07 07:31:40;;;;;;;8.60;1.50;;;;;;;;;;5050558;28;20421;-82
2022/07/07 07:34:06;;;;;;;7.10;1.40;;;;;;;;;;5050140;28;20045;-83
2022/07/07 07:36:32;;;;;;;7.82;1.40;;;;;;;;;;5042309;28;20045;-84
2022/07/07 07:38:58;;;;;;;7.57;1.55;;;;;;;;;;5050889;28;20056;-81
2022/07/07 07:41:25;;;;;;;8.98;1.70;;;;;;;;;;5029558;28;20042;-83
2022/07/07 07:43:51;;;;;;;7.53;1.20;;;;;;;;;;5018132;28;20056;-83
2022/07/07 07:46:19;;;;;;;9.02;1.60;;;;;;;;;;5032391;28;20122;-82
2022/07/07 07:48:45;;;;;;;6.95;1.23;;;;;;;;;;5037466;28;20052;-83
2022/07/07 07:51:11;;;;;;;4.72;0.85;;;;;;;;;;5034153;28;20057;-83
2022/07/07 07:53:37;;;;;;;4.43;0.80;;;;;;;;;;5037283;28;20042;-83
2022/07/07 07:56:03;;;;;;;5.32;1.00;;;;;;;;;;5038675;28;20437;-83
2022/07/07 07:58:29;;;;;;;5.85;0.85;;;;;;;;;;5040091;28;20100;-82
2022/07/07 08:00:55;;;;;;;4.20;0.70;;;;;;;;;;5037117;28;20126;-83
2022/07/07 08:03:21;;;;;;;4.40;0.68;;;;;;;;;;5039093;28;20079;-84
2022/07/07 08:05:48;;;;;;;6.85;0.93;;;;;;;;;;5043890;28;20041;-84
2022/07/07 08:08:14;;;;;;;5.22;0.70;;;;;;;;;;5061971;28;20052;-85
2022/07/07 08:10:40;;;;;;;3.63;0.70;;;;;;;;;;5080894;28;20072;-84
2022/07/07 08:13:06;;;;;;;3.20;0.70;;;;;;;;;;5068606;28;20048;-85
2022/07/07 08:15:32;;;;;;;4.28;0.90;;;;;;;;;;5084760;28;20045;-84
2022/07/07 08:17:58;;;;;;;6.10;0.70;;;;;;;;;;5066978;28;20052;-84
2022/07/07 08:20:24;;;;;;;4.50;0.88;;;;;;;;;;5045201;28;20041;-82
2022/07/07 08:22:50;;;;;;;5.53;0.70;;;;;;;;;;5022855;28;20399;-83
2022/07/07 08:25:16;;;;;;;5.05;0.60;;;;;;;;;;5074151;28;20114;-82
2022/07/07 08:27:42;;;;;;;7.60;1.30;;;;;;;;;;5065010;28;20049;-83
2022/07/07 08:30:08;;;;;;;3.47;0.60;;;;;;;;;;5048936;28;20045;-84
2022/07/07 08:32:34;;;;;;;4.95;0.60;;;;;;;;;;5061786;28;20049;-84
2022/07/07 08:35:00;;;;;;;4.38;0.60;;;;;;;;;;5063140;28;20053;-83
2022/07/07 08:37:26;;;;;;;1.90;0.40;;;;;;;;;;5061483;28;20089;-82
2022/07/07 08:39:52;;;;;;;3.17;0.50;;;;;;;;;;5057066;28;20053;-82
2022/07/07 08:42:18;;;;;;;2.60;0.40;;;;;;;;;;5061111;28;20422;-83
2022/07/07 08:44:44;;;;;;;4.13;0.57;;;;;;;;;;5072748;28;20075;-83
2022/07/07 08:47:10;;;;;;;3.28;0.60;;;;;;;;;;5062567;28;20045;-84
2022/07/07 08:49:36;;;;;;;5.22;0.73;;;;;;;;;;5055954;28;20068;-84
2022/07/07 08:52:02;;;;;;;4.68;0.80;;;;;;;;;;5059122;28;20487;-86
2022/07/07 08:54:29;;;;;;;4.88;1.10;;;;;;;;;;5049455;28;20051;-84
2022/07/07 08:56:58;;;;;;;5.00;0.82;;;;;;;;;;5082740;28;20044;-84
2022/07/07 08:59:24;;;;;;;3.63;0.65;;;;;;;;;;5062754;28;20376;-83
2022/07/07 09:01:57;;;;;;;4.68;0.85;;;;;;;;;;5075992;28;20399;-82
2022/07/07 09:04:23;;;;;;;3.72;0.80;;;;;;;;;;5037972;28;20099;-83
2022/07/07 09:06:56;;;;;;;3.42;0.60;;;;;;;;;;5038376;28;20085;-84
2022/07/07 09:09:44;;;;;;;5.30;1.00;;;;;;;;;;5057839;28;20125;-84
2022/07/07 09:12:12;;;;;;;6.32;1.00;;;;;;;;;;5058824;28;20128;-84
2022/07/07 09:14:48;;;;;;;5.75;1.00;;;;;;;;;;5055921;28;20467;-84
2022/07/07 09:17:28;;;;;;;4.85;0.80;;;;;;;;;;5058024;28;20392;-84
2022/07/07 09:20:13;;;;;;;6.60;1.40;;;;;;;;;;5058920;28;20055;-83
2022/07/07 09:22:53;;;;;;;5.97;1.00;;;;;;;;;;5039664;28;20068;-83
2022/07/07 09:25:20;;;;;;;6.43;0.90;;;;;;;;;;5062723;28;20123;-84
2022/07/07 09:27:52;;;;;;;6.63;1.00;;;;;;;;;;5048584;28;20083;-82
2022/07/07 09:30:29;;;;;;;8.05;1.20;;;;;;;;;;5055982;28;20049;-84
2022/07/07 09:32:55;;;;;;;6.88;1.50;;;;;;;;;;5056889;28;20048;-85
2022/07/07 09:38:22;;;;;;;5.97;1.30;;;;;;;;;;5058732;28;20139;-85
2022/07/07 09:41:02;;;;;;;8.95;1.65;;;;;;;;;;5075902;28;20116;-85
2022/07/07 09:43:29;;;;;;;6.60;1.30;;;;;;;;;;5048650;28;20395;-85
2022/07/07 09:46:14;;;;;;;7.70;1.73;;;;;;;;;;5037958;28;20597;-85
2022/07/07 09:48:42;;;;;;;8.48;1.40;;;;;;;;;;5051939;28;20083;-86
2022/07/07 09:51:11;;;;;;;7.38;1.20;;;;;;;;;;5036556;28;20198;-85
2022/07/07 09:53:55;;;;;;;10.05;1.77;;;;;;;;;;5052891;28;20174;-85
2022/07/07 09:56:22;;;;;;;8.93;1.73;;;;;;;;;;5058679;28;20052;-84
2022/07/07 09:58:48;;;;;;;7.50;1.50;;;;;;;;;;5058442;28;20037;-85
2022/07/07 10:01:17;;;;;;;5.57;1.30;;;;;;;;;;5054396;28;20067;-85
2022/07/07 10:03:44;;;;;;;6.88;1.42;;;;;;;;;;5054983;28;20055;-84
2022/07/07 10:06:11;;;;;;;8.35;1.60;;;;;;;;;;5035955;28;20551;-85
2022/07/07 10:08:40;;;;;;;5.65;1.25;;;;;;;;;;5054751;28;20088;-84
2022/07/07 10:11:06;;;;;;;8.68;1.70;;;;;;;;;;5054835;28;20049;-85
2022/07/07 10:13:36;;;;;;;4.45;1.02;;;;;;;;;;5055344;28;20041;-84
2022/07/07 10:16:02;;;;;;;7.93;1.40;;;;;;;;;;5034611;28;20045;-84
2022/07/07 10:18:28;;;;;;;7.45;1.40;;;;;;;;;;5053918;28;20036;-85
2022/07/07 10:20:54;;;;;;;10.35;1.75;;;;;;;;;;5039326;28;20044;-85
2022/07/07 10:23:20;;;;;;;7.35;1.23;;;;;;;;;;5057443;28;20037;-85
2022/07/07 10:26:07;;;;;;;6.68;1.30;;;;;;;;;;5022171;28;20059;-87
2022/07/07 10:28:52;;;;;;;7.70;1.60;;;;;;;;;;5050579;28;20044;-86
2022/07/07 10:31:25;;;;;;;5.75;1.25;;;;;;;;;;5047898;28;20080;-86
2022/07/07 10:33:55;;;;;;;7.43;1.55;;;;;;;;;;5056909;28;20079;-88
2022/07/07 10:36:21;;;;;;;7.30;1.50;;;;;;;;;;5053775;28;20395;-84
2022/07/07 10:38:51;;;;;;;6.72;1.20;;;;;;;;;;5057002;28;20059;-84
2022/07/07 10:41:22;;;;;;;5.05;1.00;;;;;;;;;;5066191;28;20041;-87
2022/07/07 10:43:53;;;;;;;4.85;0.95;;;;;;;;;;5074006;28;20100;-85
2022/07/07 10:46:19;;;;;;;6.38;1.40;;;;;;;;;;5073677;28;20598;-87
2022/07/07 10:48:47;;;;;;;5.82;1.40;;;;;;;;;;5055400;28;20049;-84
2022/07/07 10:51:16;;;;;;;6.50;1.50;;;;;;;;;;5073235;28;20099;-83
2022/07/07 10:53:55;;;;;;;7.80;1.60;;;;;;;;;;5046830;28;20041;-85
2022/07/07 10:56:21;;;;;;;8.32;1.77;;;;;;;;;;5076701;28;20083;-87
2022/07/07 10:58:57;;;;;;;9.70;1.65;;;;;;;;;;5049587;28;20037;-85
2022/07/07 11:01:32;;;;;;;7.25;1.35;;;;;;;;;;5055257;28;20048;-84
2022/07/07 11:03:58;;;;;;;8.95;2.03;;;;;;;;;;5079495;28;20052;-85
2022/07/07 11:06:24;;;;;;;7.45;1.73;;;;;;;;;;5076534;28;20037;-85
2022/07/07 11:08:57;;;;;;;13.63;1.98;;;;;;;;;;5061409;28;20076;-82
2022/07/07 11:11:23;;;;;;;9.23;1.73;;;;;;;;;;5057136;28;20056;-83
2022/07/07 11:14:01;;;;;;;9.63;1.58;;;;;;;;;;5027916;28;20042;-82
2022/07/07 11:16:28;;;;;;;10.32;2.20;;;;;;;;;;5047153;28;20068;-86
2022/07/07 11:18:58;;;;;;;10.23;2.33;;;;;;;;;;5039702;28;20061;-84
2022/07/07 11:21:34;;;;;;;10.25;2.10;;;;;;;;;;5042195;28;20129;-87
2022/07/07 11:24:02;;;;;;;17.38;2.65;;;;;;;;;;5024631;28;20450;-87
2022/07/07 11:26:28;;;;;;;15.07;2.42;;;;;;;;;;5043152;28;20041;-84
2022/07/07 11:29:03;;;;;;;15.18;2.67;;;;;;;;;;5053430;28;20044;-85
2022/07/07 11:31:32;;;;;;;15.75;3.13;;;;;;;;;;5033790;28;20509;-84
2022/07/07 11:34:18;;;;;;;18.90;3.58;;;;;;;;;;5049516;28;20407;-87
2022/07/07 11:36:44;;;;;;;16.48;2.80;;;;;;;;;;5051163;28;20411;-83
2022/07/07 11:39:16;;;;;;;14.50;2.70;;;;;;;;;;5051068;28;20102;-83
2022/07/07 11:41:46;;;;;;;14.88;3.17;;;;;;;;;;5034884;28;20129;-84
2022/07/07 11:47:39;;;;;;;16.48;2.90;;;;;;;;;;5039311;28;20052;-83
2022/07/07 11:50:09;;;;;;;15.40;2.35;;;;;;;;;;5030587;28;20045;-85
2022/07/07 11:52:35;;;;;;;15.02;2.60;;;;;;;;;;5048697;28;20041;-83
2022/07/07 11:55:03;;;;;;;14.07;2.72;;;;;;;;;;5054268;28;20037;-84
2022/07/07 11:57:33;;;;;;;12.60;2.15;;;;;;;;;;5052074;28;20048;-88
2022/07/07 12:00:13;;;;;;;15.23;2.23;;;;;;;;;;5033772;28;20049;-84
2022/07/07 12:02:39;;;;;;;16.10;2.42;;;;;;;;;;5035817;28;20044;-84
2022/07/07 12:05:08;;;;;;;15.10;2.58;;;;;;;;;;5022989;28;20049;-84
2022/07/07 12:07:35;;;;;;;13.35;2.22;;;;;;;;;;5057209;28;20519;-83
2022/07/07 12:10:01;;;;;;;15.65;2.35;;;;;;;;;;5056090;28;20053;-84
2022/07/07 12:12:27;;;;;;;11.50;2.17;;;;;;;;;;5055612;28;20407;-83
2022/07/07 12:14:53;;;;;;;14.30;2.15;;;;;;;;;;5052889;28;20076;-84
2022/07/07 12:17:36;;;;;;;12.88;2.60;;;;;;;;;;5029222;28;20546;-83
2022/07/07 12:20:02;;;;;;;14.57;2.40;;;;;;;;;;5033177;28;20395;-84
2022/07/07 12:22:36;;;;;;;11.27;2.22;;;;;;;;;;5035450;28;20049;-83
2022/07/07 12:25:03;;;;;;;11.95;2.13;;;;;;;;;;5054405;28;20060;-83
2022/07/07 12:27:29;;;;;;;10.50;2.25;;;;;;;;;;5055147;28;20049;-84
2022/07/07 12:29:59;;;;;;;9.32;1.98;;;;;;;;;;5053303;28;20488;-84
2022/07/07 12:32:28;;;;;;;11.93;2.08;;;;;;;;;;5054941;28;20033;-85
2022/07/07 12:34:55;;;;;;;12.82;2.00;;;;;;;;;;5035876;28;20124;-84
2022/07/07 12:37:21;;;;;;;9.38;1.77;;;;;;;;;;5047019;28;20411;-85
2022/07/07 12:39:51;;;;;;;9.85;2.25;;;;;;;;;;5053273;28;20110;-85
2022/07/07 12:42:26;;;;;;;12.30;2.08;;;;;;;;;;5040273;28;20044;-85
2022/07/07 12:45:08;;;;;;;13.00;2.10;;;;;;;;;;5051596;28;20045;-87
2022/07/07 12:47:34;;;;;;;12.93;1.98;;;;;;;;;;5021045;28;20515;-85
2022/07/07 12:50:00;;;;;;;10.63;1.75;;;;;;;;;;5040241;28;20124;-84
2022/07/07 12:52:26;;;;;;;12.05;2.35;;;;;;;;;;5050747;28;20056;-84
2022/07/07 12:54:55;;;;;;;10.80;2.00;;;;;;;;;;5026702;28;20161;-83
2022/07/07 12:57:27;;;;;;;13.60;2.50;;;;;;;;;;5057088;28;20029;-83
2022/07/07 12:59:53;;;;;;;11.10;2.28;;;;;;;;;;5053120;28;20064;-84
2022/07/07 13:02:19;;;;;;;12.68;2.65;;;;;;;;;;5048150;28;20041;-83
2022/07/07 13:04:45;;;;;;;13.75;2.45;;;;;;;;;;5037818;28;20052;-88
2022/07/07 13:07:12;;;;;;;12.45;2.45;;;;;;;;;;5053393;28;20114;-83
2022/07/07 13:09:41;;;;;;;16.10;2.45;;;;;;;;;;5040253;28;20078;-84
2022/07/07 13:12:13;;;;;;;13.23;2.22;;;;;;;;;;5050532;28;20056;-84
2022/07/07 13:14:42;;;;;;;10.98;2.17;;;;;;;;;;5055904;28;20131;-85
2022/07/07 13:17:09;;;;;;;13.00;2.25;;;;;;;;;;5053314;28;20049;-87
2022/07/07 13:19:35;;;;;;;11.07;2.22;;;;;;;;;;5052879;28;20116;-84
2022/07/07 13:22:03;;;;;;;13.38;2.38;;;;;;;;;;5052580;28;20045;-84
2022/07/07 13:24:29;;;;;;;15.82;2.30;;;;;;;;;;5023465;28;20475;-86
2022/07/07 13:26:56;;;;;;;13.98;2.33;;;;;;;;;;5053971;28;20045;-84
2022/07/07 13:29:22;;;;;;;16.67;2.60;;;;;;;;;;5038822;28;20083;-84
2022/07/07 13:31:48;;;;;;;17.20;2.47;;;;;;;;;;5039985;28;20506;-86
2022/07/07 13:34:15;;;;;;;12.57;2.78;;;;;;;;;;5060879;28;20076;-87
2022/07/07 13:36:41;;;;;;;12.73;2.03;;;;;;;;;;5058501;28;20085;-84
2022/07/07 13:39:07;;;;;;;12.63;2.17;;;;;;;;;;5055753;28;20037;-89
2022/07/07 13:41:35;;;;;;;14.52;2.67;;;;;;;;;;5054287;28;20033;-87
2022/07/07 13:44:02;;;;;;;14.50;2.65;;;;;;;;;;5057897;28;20059;-85
2022/07/07 13:46:28;;;;;;;12.77;2.55;;;;;;;;;;5035592;28;20486;-85
2022/07/07 13:48:54;;;;;;;10.65;2.40;;;;;;;;;;5038186;28;20049;-85
2022/07/07 13:51:20;;;;;;;14.88;2.30;;;;;;;;;;5055355;28;20056;-83
2022/07/07 13:53:46;;;;;;;14.85;2.67;;;;;;;;;;5037618;28;20476;-85
2022/07/07 13:56:12;;;;;;;11.93;2.50;;;;;;;;;;5053961;28;20516;-84
2022/07/07 13:58:38;;;;;;;12.82;2.50;;;;;;;;;;5052517;28;20510;-83
2022/07/07 14:01:04;;;;;;;13.77;2.35;;;;;;;;;;5051563;28;20171;-85
2022/07/07 14:03:30;;;;;;;15.23;2.63;;;;;;;;;;5053365;28;20045;-84
2022/07/07 14:05:57;;;;;;;17.35;3.08;;;;;;;;;;5052983;28;20072;-84
2022/07/07 14:08:23;;;;;;;18.90;2.92;;;;;;;;;;5027730;28;20061;-84
2022/07/07 14:10:49;;;;;;;12.80;2.13;;;;;;;;;;5027871;28;20056;-84
2022/07/07 14:13:15;;;;;;;12.38;2.10;;;;;;;;;;5053589;28;20041;-84
2022/07/07 14:15:45;;;;;;;11.68;2.38;;;;;;;;;;5052225;28;20033;-84
2022/07/07 14:18:11;;;;;;;15.52;2.50;;;;;;;;;;5052654;28;20041;-85
2022/07/07 14:20:37;;;;;;;14.52;2.88;;;;;;;;;;5053526;28;20399;-85
2022/07/07 14:23:03;;;;;;;14.23;2.30;;;;;;;;;;5054359;28;20045;-84
2022/07/07 14:25:29;;;;;;;13.73;2.30;;;;;;;;;;5047391;28;20051;-87
2022/07/07 14:27:55;;;;;;;9.27;1.80;;;;;;;;;;5053958;28;20048;-85
2022/07/07 14:30:21;;;;;;;13.13;2.10;;;;;;;;;;5051212;28;20152;-86
2022/07/07 14:32:47;;;;;;;10.43;2.50;;;;;;;;;;5047964;28;20455;-83
2022/07/07 14:35:13;;;;;;;12.77;1.92;;;;;;;;;;5045066;28;20056;-85
2022/07/07 14:37:39;;;;;;;13.15;2.00;;;;;;;;;;5049761;28;20041;-83
2022/07/07 14:40:06;;;;;;;15.15;2.53;;;;;;;;;;5045967;28;20049;-83
2022/07/07 14:42:32;;;;;;;12.45;2.33;;;;;;;;;;5049386;28;20108;-83
2022/07/07 14:44:58;;;;;;;11.02;2.20;;;;;;;;;;5034793;28;20053;-83
2022/07/07 14:47:24;;;;;;;10.10;2.15;;;;;;;;;;5049105;28;20064;-82
2022/07/07 14:49:50;;;;;;;13.60;2.20;;;;;;;;;;5026067;28;20049;-82
2022/07/07 14:52:16;;;;;;;12.77;1.98;;;;;;;;;;5045982;28;20053;-84
2022/07/07 14:54:43;;;;;;;14.40;2.40;;;;;;;;;;5058767;28;20088;-86
2022/07/07 14:57:09;;;;;;;12.20;2.40;;;;;;;;;;5033478;28;20045;-84
2022/07/07 14:59:35;;;;;;;15.13;2.58;;;;;;;;;;5045329;28;20407;-84
2022/07/07 15:02:01;;;;;;;11.25;2.40;;;;;;;;;;5051357;28;20037;-84
2022/07/07 15:04:27;;;;;;;11.38;2.45;;;;;;;;;;5046479;28;20045;-84
2022/07/07 15:06:53;;;;;;;12.07;2.03;;;;;;;;;;5070198;28;20044;-84
2022/07/07 15:09:20;;;;;;;12.20;2.30;;;;;;;;;;5063850;28;20056;-84
2022/07/07 15:11:46;;;;;;;13.80;2.08;;;;;;;;;;5053574;28;20080;-87